TimeCDT,TemperatureF,Dew PointF,Humidity,Sea Level PressureIn,VisibilityMPH,Wind Direction,Wind SpeedMPH,Gust SpeedMPH,PrecipitationIn,Events,Conditions,WindDirDegrees,DateUTC
12:30 AM,62.6,60.8,94,29.81,10.0,SSW,9.2,-,0.00,Rain,Light Rain,200,2013-10-15 05:30:00
12:53 AM,62.1,60.1,93,29.81,10.0,SW,10.4,-,0.00,,Overcast,220,2013-10-15 05:53:00
1:21 AM,57.2,50.0,77,29.85,10.0,WNW,16.1,26.5,N/A,,Overcast,290,2013-10-15 06:21:00
1:30 AM,55.4,50.0,82,29.85,10.0,WNW,16.1,-,N/A,,Mostly Cloudy,290,2013-10-15 06:30:00
1:53 AM,55.9,48.9,77,29.84,10.0,WNW,15.0,-,N/A,,Clear,290,2013-10-15 06:53:00
2:53 AM,53.1,46.0,77,29.88,10.0,West,17.3,26.5,N/A,,Scattered Clouds,280,2013-10-15 07:53:00
3:02 AM,53.6,46.4,77,29.89,10.0,West,13.8,-,N/A,,Mostly Cloudy,280,2013-10-15 08:02:00
3:20 AM,51.8,44.6,76,29.89,10.0,West,15.0,24.2,N/A,,Scattered Clouds,280,2013-10-15 08:20:00
3:53 AM,50.0,44.1,80,29.89,10.0,WNW,10.4,-,N/A,,Clear,290,2013-10-15 08:53:00
4:53 AM,48.9,43.0,80,29.92,10.0,West,9.2,-,N/A,,Mostly Cloudy,270,2013-10-15 09:53:00
5:53 AM,48.9,43.0,80,29.92,10.0,West,10.4,17.3,N/A,,Overcast,280,2013-10-15 10:53:00
6:48 AM,46.4,41.0,81,29.94,10.0,WSW,8.1,-,N/A,,Scattered Clouds,250,2013-10-15 11:48:00
6:53 AM,45.0,39.9,82,29.94,10.0,WSW,8.1,-,N/A,,Partly Cloudy,250,2013-10-15 11:53:00
7:53 AM,44.1,39.9,85,29.95,10.0,West,10.4,-,N/A,,Clear,260,2013-10-15 12:53:00
8:53 AM,46.9,39.9,77,29.96,10.0,West,12.7,-,N/A,,Clear,270,2013-10-15 13:53:00
9:53 AM,50.0,37.9,63,29.98,10.0,WNW,23.0,28.8,N/A,,Clear,300,2013-10-15 14:53:00
10:53 AM,52.0,39.0,61,29.99,10.0,WNW,21.9,27.6,N/A,,Clear,300,2013-10-15 15:53:00
11:53 AM,53.1,37.9,57,29.99,10.0,WNW,21.9,29.9,N/A,,Clear,300,2013-10-15 16:53:00
12:53 PM,55.0,37.9,53,29.99,10.0,NW,17.3,31.1,N/A,,Clear,310,2013-10-15 17:53:00
1:53 PM,57.0,39.0,51,29.99,10.0,West,18.4,27.6,N/A,,Scattered Clouds,280,2013-10-15 18:53:00
2:53 PM,55.9,37.9,51,29.99,10.0,WNW,17.3,27.6,N/A,,Partly Cloudy,300,2013-10-15 19:53:00
3:53 PM,55.0,37.9,53,30.00,10.0,WNW,17.3,28.8,N/A,,Overcast,300,2013-10-15 20:53:00
4:53 PM,53.1,37.9,57,30.01,10.0,WNW,17.3,26.5,N/A,,Overcast,300,2013-10-15 21:53:00
5:53 PM,52.0,37.9,59,30.02,10.0,WNW,13.8,-,N/A,,Overcast,300,2013-10-15 22:53:00
6:53 PM,50.0,37.9,63,30.04,10.0,NW,8.1,-,N/A,,Overcast,310,2013-10-15 23:53:00
7:53 PM,50.0,39.0,66,30.07,10.0,NW,6.9,-,N/A,,Overcast,310,2013-10-16 00:53:00
8:53 PM,48.9,39.0,69,30.08,10.0,WNW,8.1,16.1,N/A,,Overcast,300,2013-10-16 01:53:00
9:53 PM,48.9,37.9,66,30.08,10.0,NW,12.7,-,N/A,,Overcast,310,2013-10-16 02:53:00
10:53 PM,48.9,37.9,66,30.09,10.0,WNW,9.2,-,N/A,,Overcast,300,2013-10-16 03:53:00
11:53 PM,48.0,37.9,68,30.09,10.0,WNW,10.4,-,N/A,,Overcast,290,2013-10-16 04:53:00